sensor_id;sensor_type;location;lat;lon;timestamp;P1;durP1;ratioP1;P2;durP2;ratioP2
43070;SDS011;36278;47.952;21.714;2024-01-30T00:01:23;71.97;;;44.17;;
43070;SDS011;36278;47.952;21.714;2024-01-30T00:03:49;75.90;;;44.93;;
43070;SDS011;36278;47.952;21.714;2024-01-30T00:06:18;69.68;;;43.20;;
43070;SDS011;36278;47.952;21.714;2024-01-30T00:08:44;81.75;;;46.78;;
43070;SDS011;36278;47.952;21.714;2024-01-30T00:11:11;68.78;;;44.50;;
43070;SDS011;36278;47.952;21.714;2024-01-30T00:13:37;68.77;;;43.50;;
43070;SDS011;36278;47.952;21.714;2024-01-30T00:16:02;75.37;;;45.63;;
43070;SDS011;36278;47.952;21.714;2024-01-30T00:18:29;67.32;;;41.25;;
43070;SDS011;36278;47.952;21.714;2024-01-30T00:20:54;68.57;;;42.83;;
43070;SDS011;36278;47.952;21.714;2024-01-30T00:23:20;68.03;;;42.67;;
43070;SDS011;36278;47.952;21.714;2024-01-30T00:25:45;65.27;;;42.17;;
43070;SDS011;36278;47.952;21.714;2024-01-30T00:28:10;67.03;;;41.27;;
43070;SDS011;36278;47.952;21.714;2024-01-30T00:30:36;66.80;;;41.60;;
43070;SDS011;36278;47.952;21.714;2024-01-30T00:33:01;71.57;;;41.57;;
43070;SDS011;36278;47.952;21.714;2024-01-30T00:35:27;66.73;;;40.73;;
43070;SDS011;36278;47.952;21.714;2024-01-30T00:37:53;66.60;;;40.77;;
43070;SDS011;36278;47.952;21.714;2024-01-30T00:40:18;67.57;;;41.73;;
43070;SDS011;36278;47.952;21.714;2024-01-30T00:42:45;69.20;;;41.60;;
43070;SDS011;36278;47.952;21.714;2024-01-30T00:45:12;62.17;;;40.33;;
43070;SDS011;36278;47.952;21.714;2024-01-30T00:47:39;65.40;;;40.53;;
43070;SDS011;36278;47.952;21.714;2024-01-30T00:50:04;66.13;;;41.30;;
43070;SDS011;36278;47.952;21.714;2024-01-30T00:52:30;66.43;;;42.03;;
43070;SDS011;36278;47.952;21.714;2024-01-30T00:54:57;63.80;;;41.80;;
43070;SDS011;36278;47.952;21.714;2024-01-30T00:57:22;66.57;;;41.33;;
43070;SDS011;36278;47.952;21.714;2024-01-30T00:59:48;71.23;;;41.03;;
43070;SDS011;36278;47.952;21.714;2024-01-30T01:02:13;64.23;;;41.00;;
43070;SDS011;36278;47.952;21.714;2024-01-30T01:04:40;69.10;;;42.53;;
43070;SDS011;36278;47.952;21.714;2024-01-30T01:07:05;67.70;;;40.67;;
43070;SDS011;36278;47.952;21.714;2024-01-30T01:09:30;64.87;;;40.57;;
43070;SDS011;36278;47.952;21.714;2024-01-30T01:11:56;68.20;;;42.40;;
43070;SDS011;36278;47.952;21.714;2024-01-30T01:14:22;68.30;;;44.07;;
43070;SDS011;36278;47.952;21.714;2024-01-30T01:16:47;64.77;;;41.97;;
43070;SDS011;36278;47.952;21.714;2024-01-30T01:19:12;70.67;;;43.57;;
43070;SDS011;36278;47.952;21.714;2024-01-30T01:21:38;69.47;;;44.23;;
43070;SDS011;36278;47.952;21.714;2024-01-30T01:24:03;72.50;;;45.23;;
43070;SDS011;36278;47.952;21.714;2024-01-30T01:26:29;74.30;;;47.00;;
43070;SDS011;36278;47.952;21.714;2024-01-30T01:28:55;76.57;;;46.10;;
43070;SDS011;36278;47.952;21.714;2024-01-30T01:31:20;74.13;;;45.93;;
43070;SDS011;36278;47.952;21.714;2024-01-30T01:33:49;71.80;;;46.50;;
43070;SDS011;36278;47.952;21.714;2024-01-30T01:36:15;69.90;;;44.27;;
43070;SDS011;36278;47.952;21.714;2024-01-30T01:38:40;68.97;;;42.60;;
43070;SDS011;36278;47.952;21.714;2024-01-30T01:41:06;72.60;;;45.47;;
43070;SDS011;36278;47.952;21.714;2024-01-30T01:43:31;68.67;;;42.80;;
43070;SDS011;36278;47.952;21.714;2024-01-30T01:45:57;73.97;;;43.83;;
43070;SDS011;36278;47.952;21.714;2024-01-30T01:48:23;68.60;;;43.50;;
43070;SDS011;36278;47.952;21.714;2024-01-30T01:50:48;68.03;;;42.27;;
43070;SDS011;36278;47.952;21.714;2024-01-30T01:53:14;71.00;;;45.80;;
43070;SDS011;36278;47.952;21.714;2024-01-30T01:55:41;74.60;;;45.63;;
43070;SDS011;36278;47.952;21.714;2024-01-30T01:58:06;70.40;;;44.23;;
43070;SDS011;36278;47.952;21.714;2024-01-30T02:00:34;70.13;;;44.07;;
43070;SDS011;36278;47.952;21.714;2024-01-30T02:03:01;81.80;;;47.47;;
43070;SDS011;36278;47.952;21.714;2024-01-30T02:05:27;67.72;;;43.33;;
43070;SDS011;36278;47.952;21.714;2024-01-30T02:07:53;72.83;;;43.93;;
43070;SDS011;36278;47.952;21.714;2024-01-30T02:10:19;77.82;;;45.80;;
43070;SDS011;36278;47.952;21.714;2024-01-30T02:12:45;75.43;;;46.97;;
43070;SDS011;36278;47.952;21.714;2024-01-30T02:15:13;76.97;;;46.53;;
43070;SDS011;36278;47.952;21.714;2024-01-30T02:17:38;70.75;;;45.58;;
43070;SDS011;36278;47.952;21.714;2024-01-30T02:20:04;72.93;;;45.83;;
43070;SDS011;36278;47.952;21.714;2024-01-30T02:22:30;75.25;;;47.65;;
43070;SDS011;36278;47.952;21.714;2024-01-30T02:24:59;70.07;;;44.08;;
43070;SDS011;36278;47.952;21.714;2024-01-30T02:27:24;75.90;;;46.20;;
43070;SDS011;36278;47.952;21.714;2024-01-30T02:29:50;71.27;;;44.43;;
43070;SDS011;36278;47.952;21.714;2024-01-30T02:32:15;68.60;;;42.67;;
43070;SDS011;36278;47.952;21.714;2024-01-30T02:34:41;67.57;;;41.53;;
43070;SDS011;36278;47.952;21.714;2024-01-30T02:37:06;66.00;;;42.33;;
43070;SDS011;36278;47.952;21.714;2024-01-30T02:39:32;67.03;;;41.77;;
43070;SDS011;36278;47.952;21.714;2024-01-30T02:41:59;65.40;;;42.30;;
43070;SDS011;36278;47.952;21.714;2024-01-30T02:44:24;76.80;;;45.58;;
43070;SDS011;36278;47.952;21.714;2024-01-30T02:46:50;70.60;;;43.70;;
43070;SDS011;36278;47.952;21.714;2024-01-30T02:49:15;68.97;;;42.97;;
43070;SDS011;36278;47.952;21.714;2024-01-30T02:51:40;74.40;;;44.93;;
43070;SDS011;36278;47.952;21.714;2024-01-30T02:54:06;71.43;;;43.87;;
43070;SDS011;36278;47.952;21.714;2024-01-30T02:56:31;71.67;;;43.83;;
43070;SDS011;36278;47.952;21.714;2024-01-30T02:58:57;73.37;;;44.93;;
43070;SDS011;36278;47.952;21.714;2024-01-30T03:01:22;78.00;;;46.77;;
43070;SDS011;36278;47.952;21.714;2024-01-30T03:03:49;76.18;;;45.38;;
43070;SDS011;36278;47.952;21.714;2024-01-30T03:06:15;71.07;;;45.70;;
43070;SDS011;36278;47.952;21.714;2024-01-30T03:08:42;78.20;;;46.35;;
43070;SDS011;36278;47.952;21.714;2024-01-30T03:11:08;78.47;;;46.67;;
43070;SDS011;36278;47.952;21.714;2024-01-30T03:13:33;80.07;;;46.10;;
43070;SDS011;36278;47.952;21.714;2024-01-30T03:15:59;77.77;;;46.53;;
43070;SDS011;36278;47.952;21.714;2024-01-30T03:18:24;73.17;;;45.50;;
43070;SDS011;36278;47.952;21.714;2024-01-30T03:20:50;70.43;;;43.83;;
43070;SDS011;36278;47.952;21.714;2024-01-30T03:23:15;76.87;;;47.37;;
43070;SDS011;36278;47.952;21.714;2024-01-30T03:25:41;69.63;;;44.87;;
43070;SDS011;36278;47.952;21.714;2024-01-30T03:28:06;75.23;;;45.63;;
43070;SDS011;36278;47.952;21.714;2024-01-30T03:30:31;78.17;;;46.50;;
43070;SDS011;36278;47.952;21.714;2024-01-30T03:32:57;79.93;;;46.50;;
43070;SDS011;36278;47.952;21.714;2024-01-30T03:35:22;76.30;;;44.93;;
43070;SDS011;36278;47.952;21.714;2024-01-30T03:37:48;79.97;;;47.43;;
43070;SDS011;36278;47.952;21.714;2024-01-30T03:40:13;74.07;;;45.43;;
43070;SDS011;36278;47.952;21.714;2024-01-30T03:42:39;71.23;;;43.03;;
43070;SDS011;36278;47.952;21.714;2024-01-30T03:45:04;71.83;;;43.87;;
43070;SDS011;36278;47.952;21.714;2024-01-30T03:47:30;66.53;;;42.00;;
43070;SDS011;36278;47.952;21.714;2024-01-30T03:49:56;68.57;;;43.47;;
43070;SDS011;36278;47.952;21.714;2024-01-30T03:52:21;70.33;;;42.67;;
43070;SDS011;36278;47.952;21.714;2024-01-30T03:54:46;74.10;;;43.50;;
43070;SDS011;36278;47.952;21.714;2024-01-30T03:57:12;71.17;;;42.47;;
43070;SDS011;36278;47.952;21.714;2024-01-30T03:59:37;72.87;;;41.80;;
43070;SDS011;36278;47.952;21.714;2024-01-30T04:02:03;62.07;;;40.73;;
43070;SDS011;36278;47.952;21.714;2024-01-30T04:04:29;61.72;;;40.60;;
43070;SDS011;36278;47.952;21.714;2024-01-30T04:06:54;66.83;;;40.73;;
43070;SDS011;36278;47.952;21.714;2024-01-30T04:09:20;62.60;;;40.37;;
43070;SDS011;36278;47.952;21.714;2024-01-30T04:11:45;62.07;;;40.47;;
43070;SDS011;36278;47.952;21.714;2024-01-30T04:14:11;63.43;;;39.80;;
43070;SDS011;36278;47.952;21.714;2024-01-30T04:16:36;65.60;;;42.03;;
43070;SDS011;36278;47.952;21.714;2024-01-30T04:19:02;65.97;;;39.70;;
43070;SDS011;36278;47.952;21.714;2024-01-30T04:21:27;66.60;;;40.23;;
43070;SDS011;36278;47.952;21.714;2024-01-30T04:23:52;62.67;;;39.47;;
43070;SDS011;36278;47.952;21.714;2024-01-30T04:26:18;65.20;;;38.50;;
43070;SDS011;36278;47.952;21.714;2024-01-30T04:28:44;59.97;;;38.73;;
43070;SDS011;36278;47.952;21.714;2024-01-30T04:31:10;71.32;;;40.50;;
43070;SDS011;36278;47.952;21.714;2024-01-30T04:33:36;60.13;;;38.40;;
43070;SDS011;36278;47.952;21.714;2024-01-30T04:36:02;62.13;;;39.30;;
43070;SDS011;36278;47.952;21.714;2024-01-30T04:38:28;58.95;;;38.47;;
43070;SDS011;36278;47.952;21.714;2024-01-30T04:40:54;64.70;;;40.13;;
43070;SDS011;36278;47.952;21.714;2024-01-30T04:43:20;65.37;;;40.60;;
43070;SDS011;36278;47.952;21.714;2024-01-30T04:45:45;68.67;;;42.40;;
43070;SDS011;36278;47.952;21.714;2024-01-30T04:48:10;63.23;;;39.87;;
43070;SDS011;36278;47.952;21.714;2024-01-30T04:50:36;67.63;;;41.10;;
43070;SDS011;36278;47.952;21.714;2024-01-30T04:53:02;64.70;;;40.10;;
43070;SDS011;36278;47.952;21.714;2024-01-30T04:55:27;73.10;;;44.77;;
43070;SDS011;36278;47.952;21.714;2024-01-30T04:57:53;70.20;;;42.67;;
43070;SDS011;36278;47.952;21.714;2024-01-30T05:00:18;71.20;;;43.17;;
43070;SDS011;36278;47.952;21.714;2024-01-30T05:02:44;73.53;;;44.10;;
43070;SDS011;36278;47.952;21.714;2024-01-30T05:05:09;74.83;;;45.53;;
43070;SDS011;36278;47.952;21.714;2024-01-30T05:07:36;65.83;;;42.70;;
43070;SDS011;36278;47.952;21.714;2024-01-30T05:10:01;79.27;;;46.17;;
43070;SDS011;36278;47.952;21.714;2024-01-30T05:12:27;72.70;;;44.80;;
43070;SDS011;36278;47.952;21.714;2024-01-30T05:14:52;74.80;;;44.07;;
43070;SDS011;36278;47.952;21.714;2024-01-30T05:17:18;68.37;;;41.73;;
43070;SDS011;36278;47.952;21.714;2024-01-30T05:19:43;75.07;;;44.80;;
43070;SDS011;36278;47.952;21.714;2024-01-30T05:22:09;76.17;;;45.93;;
43070;SDS011;36278;47.952;21.714;2024-01-30T05:24:35;73.43;;;43.27;;
43070;SDS011;36278;47.952;21.714;2024-01-30T05:27:02;72.80;;;43.53;;
43070;SDS011;36278;47.952;21.714;2024-01-30T05:29:27;74.40;;;44.57;;
43070;SDS011;36278;47.952;21.714;2024-01-30T05:31:53;76.10;;;42.97;;
43070;SDS011;36278;47.952;21.714;2024-01-30T05:34:19;72.60;;;44.03;;
43070;SDS011;36278;47.952;21.714;2024-01-30T05:36:44;66.57;;;42.30;;
43070;SDS011;36278;47.952;21.714;2024-01-30T05:39:10;72.40;;;43.70;;
43070;SDS011;36278;47.952;21.714;2024-01-30T05:41:36;72.53;;;44.17;;
43070;SDS011;36278;47.952;21.714;2024-01-30T05:44:01;69.47;;;43.60;;
43070;SDS011;36278;47.952;21.714;2024-01-30T05:46:27;70.67;;;42.87;;
43070;SDS011;36278;47.952;21.714;2024-01-30T05:48:52;74.00;;;43.80;;
43070;SDS011;36278;47.952;21.714;2024-01-30T05:51:18;71.73;;;43.73;;
43070;SDS011;36278;47.952;21.714;2024-01-30T05:53:43;70.17;;;41.90;;
43070;SDS011;36278;47.952;21.714;2024-01-30T05:56:09;67.87;;;43.43;;
43070;SDS011;36278;47.952;21.714;2024-01-30T05:58:34;73.90;;;44.47;;
43070;SDS011;36278;47.952;21.714;2024-01-30T06:01:00;71.47;;;44.00;;
43070;SDS011;36278;47.952;21.714;2024-01-30T06:03:25;67.23;;;43.00;;
43070;SDS011;36278;47.952;21.714;2024-01-30T06:05:51;70.57;;;44.40;;
43070;SDS011;36278;47.952;21.714;2024-01-30T06:08:17;72.93;;;44.30;;
43070;SDS011;36278;47.952;21.714;2024-01-30T06:10:42;77.60;;;46.60;;
43070;SDS011;36278;47.952;21.714;2024-01-30T06:13:08;77.43;;;44.83;;
43070;SDS011;36278;47.952;21.714;2024-01-30T06:15:33;71.03;;;43.97;;
43070;SDS011;36278;47.952;21.714;2024-01-30T06:17:59;73.67;;;45.33;;
43070;SDS011;36278;47.952;21.714;2024-01-30T06:20:25;72.33;;;45.93;;
43070;SDS011;36278;47.952;21.714;2024-01-30T06:22:50;73.67;;;45.30;;
43070;SDS011;36278;47.952;21.714;2024-01-30T06:25:16;72.17;;;45.90;;
43070;SDS011;36278;47.952;21.714;2024-01-30T06:27:42;72.70;;;44.47;;
43070;SDS011;36278;47.952;21.714;2024-01-30T06:30:07;71.73;;;44.47;;
43070;SDS011;36278;47.952;21.714;2024-01-30T06:32:33;72.03;;;45.13;;
43070;SDS011;36278;47.952;21.714;2024-01-30T06:35:01;79.45;;;43.65;;
43070;SDS011;36278;47.952;21.714;2024-01-30T06:37:27;76.47;;;46.63;;
43070;SDS011;36278;47.952;21.714;2024-01-30T06:39:52;73.63;;;45.43;;
43070;SDS011;36278;47.952;21.714;2024-01-30T06:42:18;65.63;;;43.13;;
43070;SDS011;36278;47.952;21.714;2024-01-30T06:44:44;69.13;;;45.33;;
43070;SDS011;36278;47.952;21.714;2024-01-30T06:47:10;89.70;;;54.67;;
43070;SDS011;36278;47.952;21.714;2024-01-30T06:49:35;81.87;;;52.30;;
43070;SDS011;36278;47.952;21.714;2024-01-30T06:52:06;75.90;;;49.15;;
43070;SDS011;36278;47.952;21.714;2024-01-30T06:54:31;86.88;;;53.83;;
43070;SDS011;36278;47.952;21.714;2024-01-30T06:56:58;82.43;;;52.13;;
43070;SDS011;36278;47.952;21.714;2024-01-30T06:59:23;89.40;;;55.53;;
43070;SDS011;36278;47.952;21.714;2024-01-30T07:01:49;93.53;;;57.87;;
43070;SDS011;36278;47.952;21.714;2024-01-30T07:04:14;85.87;;;55.00;;
43070;SDS011;36278;47.952;21.714;2024-01-30T07:06:41;92.03;;;56.20;;
43070;SDS011;36278;47.952;21.714;2024-01-30T07:09:06;88.27;;;54.27;;
43070;SDS011;36278;47.952;21.714;2024-01-30T07:11:32;92.67;;;55.20;;
43070;SDS011;36278;47.952;21.714;2024-01-30T07:13:57;79.90;;;47.93;;
43070;SDS011;36278;47.952;21.714;2024-01-30T07:16:23;69.97;;;43.17;;
43070;SDS011;36278;47.952;21.714;2024-01-30T07:18:49;71.43;;;44.10;;
43070;SDS011;36278;47.952;21.714;2024-01-30T07:21:15;75.73;;;46.07;;
43070;SDS011;36278;47.952;21.714;2024-01-30T07:23:40;74.73;;;45.17;;
43070;SDS011;36278;47.952;21.714;2024-01-30T07:26:07;70.80;;;45.10;;
43070;SDS011;36278;47.952;21.714;2024-01-30T07:28:33;75.67;;;48.73;;
43070;SDS011;36278;47.952;21.714;2024-01-30T07:30:59;76.40;;;47.60;;
43070;SDS011;36278;47.952;21.714;2024-01-30T07:33:26;76.47;;;46.60;;
43070;SDS011;36278;47.952;21.714;2024-01-30T07:35:52;69.57;;;45.57;;
43070;SDS011;36278;47.952;21.714;2024-01-30T07:38:18;85.10;;;45.27;;
43070;SDS011;36278;47.952;21.714;2024-01-30T07:40:44;71.93;;;46.10;;
43070;SDS011;36278;47.952;21.714;2024-01-30T07:43:09;68.40;;;45.40;;
43070;SDS011;36278;47.952;21.714;2024-01-30T07:45:35;71.23;;;45.63;;
43070;SDS011;36278;47.952;21.714;2024-01-30T07:48:02;81.90;;;48.63;;
43070;SDS011;36278;47.952;21.714;2024-01-30T07:50:28;73.73;;;48.03;;
43070;SDS011;36278;47.952;21.714;2024-01-30T07:52:53;70.67;;;46.70;;
43070;SDS011;36278;47.952;21.714;2024-01-30T07:58:23;72.60;;;41.63;;
43070;SDS011;36278;47.952;21.714;2024-01-30T08:00:49;74.10;;;44.17;;
43070;SDS011;36278;47.952;21.714;2024-01-30T08:03:16;73.80;;;44.80;;
43070;SDS011;36278;47.952;21.714;2024-01-30T08:05:43;71.53;;;43.13;;
43070;SDS011;36278;47.952;21.714;2024-01-30T08:08:09;66.20;;;40.67;;
43070;SDS011;36278;47.952;21.714;2024-01-30T08:10:35;57.87;;;38.30;;
43070;SDS011;36278;47.952;21.714;2024-01-30T08:13:01;56.97;;;38.57;;
43070;SDS011;36278;47.952;21.714;2024-01-30T08:15:27;56.63;;;37.03;;
43070;SDS011;36278;47.952;21.714;2024-01-30T08:17:52;56.23;;;37.87;;
43070;SDS011;36278;47.952;21.714;2024-01-30T08:20:23;74.07;;;46.57;;
43070;SDS011;36278;47.952;21.714;2024-01-30T08:22:49;52.70;;;36.83;;
43070;SDS011;36278;47.952;21.714;2024-01-30T08:25:14;55.40;;;37.97;;
43070;SDS011;36278;47.952;21.714;2024-01-30T08:27:40;58.60;;;38.33;;
43070;SDS011;36278;47.952;21.714;2024-01-30T08:30:06;64.10;;;40.47;;
43070;SDS011;36278;47.952;21.714;2024-01-30T08:32:32;54.83;;;39.27;;
43070;SDS011;36278;47.952;21.714;2024-01-30T08:34:58;59.53;;;39.90;;
43070;SDS011;36278;47.952;21.714;2024-01-30T08:37:24;57.97;;;39.27;;
43070;SDS011;36278;47.952;21.714;2024-01-30T08:39:49;56.43;;;39.77;;
43070;SDS011;36278;47.952;21.714;2024-01-30T08:42:15;60.47;;;40.07;;
43070;SDS011;36278;47.952;21.714;2024-01-30T08:44:41;58.10;;;39.13;;
43070;SDS011;36278;47.952;21.714;2024-01-30T08:47:06;54.60;;;37.80;;
43070;SDS011;36278;47.952;21.714;2024-01-30T08:49:32;54.47;;;38.27;;
43070;SDS011;36278;47.952;21.714;2024-01-30T08:51:58;59.53;;;38.23;;
43070;SDS011;36278;47.952;21.714;2024-01-30T08:54:23;59.37;;;40.03;;
43070;SDS011;36278;47.952;21.714;2024-01-30T08:56:49;50.10;;;36.70;;
43070;SDS011;36278;47.952;21.714;2024-01-30T08:59:14;52.90;;;37.87;;
43070;SDS011;36278;47.952;21.714;2024-01-30T09:01:40;54.07;;;37.17;;
43070;SDS011;36278;47.952;21.714;2024-01-30T09:04:05;51.50;;;37.83;;
43070;SDS011;36278;47.952;21.714;2024-01-30T09:06:31;59.00;;;38.70;;
43070;SDS011;36278;47.952;21.714;2024-01-30T09:08:57;56.63;;;37.33;;
43070;SDS011;36278;47.952;21.714;2024-01-30T09:11:23;60.53;;;38.83;;
43070;SDS011;36278;47.952;21.714;2024-01-30T09:13:48;56.37;;;38.43;;
43070;SDS011;36278;47.952;21.714;2024-01-30T09:16:14;55.60;;;38.87;;
43070;SDS011;36278;47.952;21.714;2024-01-30T09:18:41;52.60;;;38.33;;
43070;SDS011;36278;47.952;21.714;2024-01-30T09:21:07;52.77;;;37.07;;
43070;SDS011;36278;47.952;21.714;2024-01-30T09:23:32;52.63;;;37.87;;
43070;SDS011;36278;47.952;21.714;2024-01-30T09:25:58;54.37;;;38.07;;
43070;SDS011;36278;47.952;21.714;2024-01-30T09:28:24;44.60;;;33.70;;
43070;SDS011;36278;47.952;21.714;2024-01-30T09:30:49;48.27;;;33.33;;
43070;SDS011;36278;47.952;21.714;2024-01-30T09:33:15;44.40;;;32.93;;
43070;SDS011;36278;47.952;21.714;2024-01-30T09:35:40;44.87;;;32.67;;
43070;SDS011;36278;47.952;21.714;2024-01-30T09:38:06;46.43;;;32.27;;
43070;SDS011;36278;47.952;21.714;2024-01-30T09:40:31;47.50;;;33.87;;
43070;SDS011;36278;47.952;21.714;2024-01-30T09:42:57;45.47;;;34.20;;
43070;SDS011;36278;47.952;21.714;2024-01-30T09:45:25;46.23;;;33.90;;
43070;SDS011;36278;47.952;21.714;2024-01-30T09:47:51;45.17;;;32.73;;
43070;SDS011;36278;47.952;21.714;2024-01-30T09:50:18;51.87;;;35.77;;
43070;SDS011;36278;47.952;21.714;2024-01-30T09:52:44;47.53;;;34.23;;
43070;SDS011;36278;47.952;21.714;2024-01-30T09:55:11;48.43;;;33.10;;
43070;SDS011;36278;47.952;21.714;2024-01-30T09:57:36;47.93;;;34.03;;
43070;SDS011;36278;47.952;21.714;2024-01-30T10:00:02;49.50;;;33.50;;
43070;SDS011;36278;47.952;21.714;2024-01-30T10:02:30;45.67;;;32.90;;
43070;SDS011;36278;47.952;21.714;2024-01-30T10:04:57;49.33;;;34.93;;
43070;SDS011;36278;47.952;21.714;2024-01-30T10:07:22;52.83;;;34.33;;
43070;SDS011;36278;47.952;21.714;2024-01-30T10:09:48;43.23;;;32.73;;
43070;SDS011;36278;47.952;21.714;2024-01-30T10:12:14;42.50;;;31.07;;
43070;SDS011;36278;47.952;21.714;2024-01-30T10:14:40;45.17;;;31.80;;
43070;SDS011;36278;47.952;21.714;2024-01-30T10:17:08;45.37;;;32.43;;
43070;SDS011;36278;47.952;21.714;2024-01-30T10:19:37;43.73;;;31.43;;
43070;SDS011;36278;47.952;21.714;2024-01-30T10:22:07;43.97;;;30.00;;
43070;SDS011;36278;47.952;21.714;2024-01-30T10:24:33;42.17;;;31.50;;
43070;SDS011;36278;47.952;21.714;2024-01-30T10:26:59;41.90;;;30.43;;
43070;SDS011;36278;47.952;21.714;2024-01-30T10:29:25;44.47;;;29.93;;
43070;SDS011;36278;47.952;21.714;2024-01-30T10:31:57;47.03;;;30.13;;
43070;SDS011;36278;47.952;21.714;2024-01-30T10:34:27;41.27;;;28.30;;
43070;SDS011;36278;47.952;21.714;2024-01-30T10:36:59;39.37;;;28.03;;
43070;SDS011;36278;47.952;21.714;2024-01-30T10:39:31;36.57;;;25.70;;
43070;SDS011;36278;47.952;21.714;2024-01-30T10:42:02;35.03;;;24.93;;
43070;SDS011;36278;47.952;21.714;2024-01-30T10:44:30;34.73;;;25.40;;
43070;SDS011;36278;47.952;21.714;2024-01-30T10:47:10;36.07;;;25.63;;
43070;SDS011;36278;47.952;21.714;2024-01-30T10:49:39;33.90;;;25.70;;
43070;SDS011;36278;47.952;21.714;2024-01-30T10:52:06;35.17;;;26.83;;
43070;SDS011;36278;47.952;21.714;2024-01-30T10:54:34;34.57;;;24.07;;
43070;SDS011;36278;47.952;21.714;2024-01-30T10:57:00;32.47;;;23.23;;
43070;SDS011;36278;47.952;21.714;2024-01-30T10:59:29;32.93;;;21.47;;
43070;SDS011;36278;47.952;21.714;2024-01-30T11:01:57;32.37;;;23.10;;
43070;SDS011;36278;47.952;21.714;2024-01-30T11:04:24;30.43;;;22.30;;
43070;SDS011;36278;47.952;21.714;2024-01-30T11:06:50;32.33;;;22.67;;
43070;SDS011;36278;47.952;21.714;2024-01-30T11:09:19;31.03;;;22.30;;
43070;SDS011;36278;47.952;21.714;2024-01-30T11:11:48;31.40;;;21.90;;
43070;SDS011;36278;47.952;21.714;2024-01-30T11:14:24;32.55;;;22.00;;
43070;SDS011;36278;47.952;21.714;2024-01-30T11:16:52;29.87;;;20.43;;
43070;SDS011;36278;47.952;21.714;2024-01-30T11:19:24;26.50;;;19.70;;
43070;SDS011;36278;47.952;21.714;2024-01-30T11:21:52;29.70;;;21.13;;
43070;SDS011;36278;47.952;21.714;2024-01-30T11:24:19;30.60;;;23.07;;
43070;SDS011;36278;47.952;21.714;2024-01-30T11:27:09;27.83;;;19.23;;
43070;SDS011;36278;47.952;21.714;2024-01-30T11:29:37;24.57;;;17.73;;
43070;SDS011;36278;47.952;21.714;2024-01-30T11:32:05;22.30;;;16.17;;
43070;SDS011;36278;47.952;21.714;2024-01-30T11:34:32;19.47;;;15.10;;
43070;SDS011;36278;47.952;21.714;2024-01-30T11:36:59;18.80;;;15.47;;
43070;SDS011;36278;47.952;21.714;2024-01-30T11:39:31;19.67;;;14.83;;
43070;SDS011;36278;47.952;21.714;2024-01-30T11:41:57;22.00;;;14.90;;
43070;SDS011;36278;47.952;21.714;2024-01-30T11:44:24;20.57;;;14.03;;
43070;SDS011;36278;47.952;21.714;2024-01-30T11:46:51;19.37;;;15.17;;
43070;SDS011;36278;47.952;21.714;2024-01-30T11:49:17;19.77;;;14.60;;
43070;SDS011;36278;47.952;21.714;2024-01-30T11:51:45;18.73;;;14.27;;
43070;SDS011;36278;47.952;21.714;2024-01-30T11:54:11;21.13;;;15.33;;
43070;SDS011;36278;47.952;21.714;2024-01-30T11:56:37;22.53;;;15.50;;
43070;SDS011;36278;47.952;21.714;2024-01-30T11:59:03;21.93;;;15.43;;
43070;SDS011;36278;47.952;21.714;2024-01-30T12:01:30;19.27;;;14.37;;
43070;SDS011;36278;47.952;21.714;2024-01-30T12:03:56;19.70;;;15.30;;
43070;SDS011;36278;47.952;21.714;2024-01-30T12:06:22;21.23;;;14.43;;
43070;SDS011;36278;47.952;21.714;2024-01-30T12:11:24;20.17;;;14.60;;
43070;SDS011;36278;47.952;21.714;2024-01-30T12:13:50;22.67;;;14.43;;
43070;SDS011;36278;47.952;21.714;2024-01-30T12:16:17;18.47;;;14.13;;
43070;SDS011;36278;47.952;21.714;2024-01-30T12:18:43;17.13;;;13.10;;
43070;SDS011;36278;47.952;21.714;2024-01-30T12:21:09;17.80;;;13.40;;
43070;SDS011;36278;47.952;21.714;2024-01-30T12:23:35;16.07;;;13.40;;
43070;SDS011;36278;47.952;21.714;2024-01-30T12:26:00;20.17;;;15.20;;
43070;SDS011;36278;47.952;21.714;2024-01-30T12:28:29;20.57;;;14.23;;
43070;SDS011;36278;47.952;21.714;2024-01-30T12:31:01;20.00;;;14.00;;
43070;SDS011;36278;47.952;21.714;2024-01-30T12:33:30;16.43;;;13.97;;
43070;SDS011;36278;47.952;21.714;2024-01-30T12:35:56;23.13;;;12.87;;
43070;SDS011;36278;47.952;21.714;2024-01-30T12:38:23;16.13;;;13.00;;
43070;SDS011;36278;47.952;21.714;2024-01-30T12:40:50;18.80;;;14.23;;
43070;SDS011;36278;47.952;21.714;2024-01-30T12:43:19;18.10;;;13.70;;
43070;SDS011;36278;47.952;21.714;2024-01-30T12:45:45;18.27;;;12.67;;
43070;SDS011;36278;47.952;21.714;2024-01-30T12:48:12;20.20;;;12.07;;
43070;SDS011;36278;47.952;21.714;2024-01-30T12:50:37;16.87;;;13.50;;
43070;SDS011;36278;47.952;21.714;2024-01-30T12:53:03;19.17;;;13.37;;
43070;SDS011;36278;47.952;21.714;2024-01-30T12:55:29;20.50;;;13.63;;
43070;SDS011;36278;47.952;21.714;2024-01-30T12:57:55;16.97;;;12.80;;
43070;SDS011;36278;47.952;21.714;2024-01-30T13:00:21;15.87;;;12.57;;
43070;SDS011;36278;47.952;21.714;2024-01-30T13:02:47;23.27;;;13.10;;
43070;SDS011;36278;47.952;21.714;2024-01-30T13:05:13;16.77;;;12.63;;
43070;SDS011;36278;47.952;21.714;2024-01-30T13:07:39;15.03;;;11.13;;
43070;SDS011;36278;47.952;21.714;2024-01-30T13:10:04;15.33;;;11.90;;
43070;SDS011;36278;47.952;21.714;2024-01-30T13:12:31;18.03;;;12.30;;
43070;SDS011;36278;47.952;21.714;2024-01-30T13:14:58;17.77;;;12.20;;
43070;SDS011;36278;47.952;21.714;2024-01-30T13:17:26;15.43;;;11.80;;
43070;SDS011;36278;47.952;21.714;2024-01-30T13:19:52;17.13;;;11.87;;
43070;SDS011;36278;47.952;21.714;2024-01-30T13:22:19;16.33;;;11.80;;
43070;SDS011;36278;47.952;21.714;2024-01-30T13:24:48;14.10;;;11.97;;
43070;SDS011;36278;47.952;21.714;2024-01-30T13:27:13;16.00;;;12.43;;
43070;SDS011;36278;47.952;21.714;2024-01-30T13:29:39;15.73;;;12.23;;
43070;SDS011;36278;47.952;21.714;2024-01-30T13:32:04;14.43;;;11.07;;
43070;SDS011;36278;47.952;21.714;2024-01-30T13:34:31;15.53;;;10.73;;
43070;SDS011;36278;47.952;21.714;2024-01-30T13:36:56;15.83;;;11.67;;
43070;SDS011;36278;47.952;21.714;2024-01-30T13:39:22;16.13;;;11.40;;
43070;SDS011;36278;47.952;21.714;2024-01-30T13:41:48;13.27;;;11.23;;
43070;SDS011;36278;47.952;21.714;2024-01-30T13:44:13;18.17;;;12.63;;
43070;SDS011;36278;47.952;21.714;2024-01-30T13:46:41;15.27;;;12.67;;
43070;SDS011;36278;47.952;21.714;2024-01-30T13:49:07;14.20;;;12.00;;
43070;SDS011;36278;47.952;21.714;2024-01-30T13:51:32;14.30;;;11.23;;
43070;SDS011;36278;47.952;21.714;2024-01-30T13:53:58;17.07;;;12.57;;
43070;SDS011;36278;47.952;21.714;2024-01-30T13:56:23;15.00;;;11.93;;
43070;SDS011;36278;47.952;21.714;2024-01-30T13:58:49;14.77;;;11.33;;
43070;SDS011;36278;47.952;21.714;2024-01-30T14:01:15;17.50;;;12.73;;
43070;SDS011;36278;47.952;21.714;2024-01-30T14:03:41;15.80;;;12.87;;
43070;SDS011;36278;47.952;21.714;2024-01-30T14:06:07;17.40;;;13.07;;
43070;SDS011;36278;47.952;21.714;2024-01-30T14:08:32;19.00;;;14.10;;